sensor_id;sensor_type;location;lat;lon;timestamp;pressure;altitude;pressure_sealevel;temperature;humidity
929;BME280;451;47.988;7.842;2023-08-06T00:00:07;97818.34;;;17.08;100.00
929;BME280;451;47.988;7.842;2023-08-06T00:09:12;97799.59;;;16.80;100.00
929;BME280;451;47.988;7.842;2023-08-06T00:18:16;97804.09;;;16.79;100.00
929;BME280;451;47.988;7.842;2023-08-06T00:27:20;97790.88;;;17.14;100.00
929;BME280;451;47.988;7.842;2023-08-06T00:36:23;97780.00;;;17.04;100.00
929;BME280;451;47.988;7.842;2023-08-06T00:45:28;97772.66;;;17.41;100.00
929;BME280;451;47.988;7.842;2023-08-06T00:54:34;97743.88;;;17.03;100.00
929;BME280;451;47.988;7.842;2023-08-06T01:03:39;97750.47;;;17.36;100.00
929;BME280;451;47.988;7.842;2023-08-06T01:12:45;97739.72;;;17.54;100.00
929;BME280;451;47.988;7.842;2023-08-06T01:21:52;97759.16;;;17.54;100.00
929;BME280;451;47.988;7.842;2023-08-06T01:30:59;97722.50;;;17.56;100.00
929;BME280;451;47.988;7.842;2023-08-06T01:40:10;97729.69;;;17.67;100.00
929;BME280;451;47.988;7.842;2023-08-06T01:49:13;97720.31;;;17.65;100.00
929;BME280;451;47.988;7.842;2023-08-06T01:58:18;97726.78;;;17.69;100.00
929;BME280;451;47.988;7.842;2023-08-06T02:07:21;97738.47;;;17.80;100.00
929;BME280;451;47.988;7.842;2023-08-06T02:16:26;97725.97;;;17.45;100.00
929;BME280;451;47.988;7.842;2023-08-06T02:25:29;97733.78;;;16.82;100.00
929;BME280;451;47.988;7.842;2023-08-06T02:34:33;97759.94;;;16.67;100.00
929;BME280;451;47.988;7.842;2023-08-06T02:43:37;97779.78;;;16.64;100.00
929;BME280;451;47.988;7.842;2023-08-06T02:52:42;97791.94;;;16.24;100.00
929;BME280;451;47.988;7.842;2023-08-06T03:01:46;97766.34;;;15.74;100.00
929;BME280;451;47.988;7.842;2023-08-06T03:10:57;97777.69;;;15.63;100.00
929;BME280;451;47.988;7.842;2023-08-06T03:20:03;97763.28;;;15.59;100.00
929;BME280;451;47.988;7.842;2023-08-06T03:29:08;97766.63;;;15.48;100.00
929;BME280;451;47.988;7.842;2023-08-06T03:38:11;97754.31;;;15.11;100.00
929;BME280;451;47.988;7.842;2023-08-06T03:47:16;97675.44;;;14.45;100.00
929;BME280;451;47.988;7.842;2023-08-06T03:56:22;97730.06;;;14.89;100.00
929;BME280;451;47.988;7.842;2023-08-06T04:05:27;97755.22;;;14.73;100.00
929;BME280;451;47.988;7.842;2023-08-06T04:14:30;97761.22;;;14.56;100.00
929;BME280;451;47.988;7.842;2023-08-06T04:23:35;97781.34;;;14.88;100.00
929;BME280;451;47.988;7.842;2023-08-06T04:32:42;97766.38;;;14.75;100.00
929;BME280;451;47.988;7.842;2023-08-06T04:41:47;97775.25;;;14.87;100.00
929;BME280;451;47.988;7.842;2023-08-06T04:50:51;97763.47;;;14.83;100.00
929;BME280;451;47.988;7.842;2023-08-06T04:59:56;97817.06;;;14.28;100.00
929;BME280;451;47.988;7.842;2023-08-06T05:09:00;97807.59;;;14.00;100.00
929;BME280;451;47.988;7.842;2023-08-06T05:18:04;97800.53;;;13.81;100.00
929;BME280;451;47.988;7.842;2023-08-06T05:27:07;97777.84;;;13.60;100.00
929;BME280;451;47.988;7.842;2023-08-06T05:36:12;97811.13;;;13.74;100.00
929;BME280;451;47.988;7.842;2023-08-06T05:45:31;97850.91;;;13.99;100.00
929;BME280;451;47.988;7.842;2023-08-06T05:54:36;97839.53;;;13.99;100.00
929;BME280;451;47.988;7.842;2023-08-06T06:03:39;97831.47;;;13.74;100.00
929;BME280;451;47.988;7.842;2023-08-06T06:12:44;97844.31;;;14.41;100.00
929;BME280;451;47.988;7.842;2023-08-06T06:21:47;97870.16;;;14.20;100.00
929;BME280;451;47.988;7.842;2023-08-06T06:30:51;97859.59;;;14.20;100.00
929;BME280;451;47.988;7.842;2023-08-06T06:39:54;97858.25;;;13.97;100.00
929;BME280;451;47.988;7.842;2023-08-06T06:48:59;97873.66;;;14.13;100.00
929;BME280;451;47.988;7.842;2023-08-06T06:58:02;97902.34;;;14.10;100.00
929;BME280;451;47.988;7.842;2023-08-06T07:07:06;97898.25;;;14.07;100.00
929;BME280;451;47.988;7.842;2023-08-06T07:16:10;97905.72;;;14.43;100.00
929;BME280;451;47.988;7.842;2023-08-06T07:25:14;97912.22;;;14.54;100.00
929;BME280;451;47.988;7.842;2023-08-06T07:34:17;97921.38;;;14.45;100.00
929;BME280;451;47.988;7.842;2023-08-06T07:43:22;97928.16;;;14.92;100.00
929;BME280;451;47.988;7.842;2023-08-06T07:52:25;97932.16;;;15.01;100.00
929;BME280;451;47.988;7.842;2023-08-06T08:01:29;97938.53;;;15.25;100.00
929;BME280;451;47.988;7.842;2023-08-06T08:10:33;97954.09;;;15.15;100.00
929;BME280;451;47.988;7.842;2023-08-06T08:19:37;97945.81;;;14.98;100.00
929;BME280;451;47.988;7.842;2023-08-06T08:28:40;97960.41;;;15.14;100.00
929;BME280;451;47.988;7.842;2023-08-06T08:37:45;97939.47;;;14.55;100.00
929;BME280;451;47.988;7.842;2023-08-06T08:46:49;97985.28;;;14.55;100.00
929;BME280;451;47.988;7.842;2023-08-06T08:55:54;97989.41;;;15.40;100.00
929;BME280;451;47.988;7.842;2023-08-06T09:04:59;97989.34;;;15.09;100.00
929;BME280;451;47.988;7.842;2023-08-06T09:14:06;97988.16;;;15.05;100.00
929;BME280;451;47.988;7.842;2023-08-06T09:23:10;97985.75;;;14.90;100.00
929;BME280;451;47.988;7.842;2023-08-06T09:32:15;98016.50;;;15.42;100.00
929;BME280;451;47.988;7.842;2023-08-06T09:41:26;98028.91;;;15.55;100.00
929;BME280;451;47.988;7.842;2023-08-06T09:50:32;98023.41;;;15.43;100.00
929;BME280;451;47.988;7.842;2023-08-06T09:59:38;97982.50;;;15.70;100.00
929;BME280;451;47.988;7.842;2023-08-06T10:08:46;98033.16;;;15.87;100.00
929;BME280;451;47.988;7.842;2023-08-06T10:17:51;98048.81;;;16.45;100.00
929;BME280;451;47.988;7.842;2023-08-06T10:26:58;97966.25;;;15.29;100.00
929;BME280;451;47.988;7.842;2023-08-06T10:36:02;98028.78;;;15.30;100.00
929;BME280;451;47.988;7.842;2023-08-06T10:45:14;98074.53;;;15.88;100.00
929;BME280;451;47.988;7.842;2023-08-06T10:54:17;98013.44;;;14.94;100.00
929;BME280;451;47.988;7.842;2023-08-06T11:03:22;98058.50;;;15.32;100.00
929;BME280;451;47.988;7.842;2023-08-06T11:12:26;98087.16;;;14.90;100.00
929;BME280;451;47.988;7.842;2023-08-06T11:21:31;98115.63;;;15.02;100.00
929;BME280;451;47.988;7.842;2023-08-06T11:30:34;98131.00;;;15.38;100.00
929;BME280;451;47.988;7.842;2023-08-06T11:39:46;98134.97;;;15.80;100.00
929;BME280;451;47.988;7.842;2023-08-06T11:48:52;98121.09;;;15.78;100.00
929;BME280;451;47.988;7.842;2023-08-06T11:57:57;98134.59;;;16.39;100.00
929;BME280;451;47.988;7.842;2023-08-06T12:07:05;98140.91;;;16.69;100.00
929;BME280;451;47.988;7.842;2023-08-06T12:16:11;98135.56;;;16.44;100.00
929;BME280;451;47.988;7.842;2023-08-06T12:25:15;98084.97;;;16.71;100.00
929;BME280;451;47.988;7.842;2023-08-06T12:34:20;98147.00;;;17.19;100.00
929;BME280;451;47.988;7.842;2023-08-06T12:43:24;98140.09;;;17.12;100.00
929;BME280;451;47.988;7.842;2023-08-06T12:52:28;98185.94;;;15.75;100.00
929;BME280;451;47.988;7.842;2023-08-06T13:01:31;98178.19;;;16.18;100.00
929;BME280;451;47.988;7.842;2023-08-06T13:10:36;98135.75;;;16.18;100.00
929;BME280;451;47.988;7.842;2023-08-06T13:19:40;98202.66;;;18.24;100.00
929;BME280;451;47.988;7.842;2023-08-06T13:28:44;98211.47;;;18.06;97.06
929;BME280;451;47.988;7.842;2023-08-06T13:37:48;98196.50;;;18.23;94.33
929;BME280;451;47.988;7.842;2023-08-06T13:46:52;98192.63;;;18.07;91.55
929;BME280;451;47.988;7.842;2023-08-06T13:55:56;98231.88;;;18.42;90.14
929;BME280;451;47.988;7.842;2023-08-06T14:05:01;98244.91;;;18.91;86.59
929;BME280;451;47.988;7.842;2023-08-06T14:14:04;98257.91;;;17.92;86.14
929;BME280;451;47.988;7.842;2023-08-06T14:23:11;98237.75;;;17.16;87.65
929;BME280;451;47.988;7.842;2023-08-06T14:32:14;98309.53;;;17.10;96.20
929;BME280;451;47.988;7.842;2023-08-06T14:41:21;98290.38;;;17.01;100.00
929;BME280;451;47.988;7.842;2023-08-06T14:50:24;98317.50;;;17.10;100.00
929;BME280;451;47.988;7.842;2023-08-06T14:59:29;98305.88;;;17.36;94.41
929;BME280;451;47.988;7.842;2023-08-06T15:08:32;98291.25;;;17.69;95.23
929;BME280;451;47.988;7.842;2023-08-06T15:17:37;98308.19;;;17.50;90.31
929;BME280;451;47.988;7.842;2023-08-06T15:26:40;98299.38;;;17.00;85.90
929;BME280;451;47.988;7.842;2023-08-06T15:35:45;98366.41;;;17.02;85.83
929;BME280;451;47.988;7.842;2023-08-06T15:44:48;98362.59;;;17.48;79.53
929;BME280;451;47.988;7.842;2023-08-06T15:53:53;98318.56;;;18.01;75.74
929;BME280;451;47.988;7.842;2023-08-06T16:02:56;98362.16;;;18.37;75.96
929;BME280;451;47.988;7.842;2023-08-06T16:12:01;98373.13;;;18.47;76.21
929;BME280;451;47.988;7.842;2023-08-06T16:21:05;98377.19;;;17.39;76.74
929;BME280;451;47.988;7.842;2023-08-06T16:30:10;98381.06;;;17.43;76.97
929;BME280;451;47.988;7.842;2023-08-06T16:39:14;98383.81;;;17.29;77.56
929;BME280;451;47.988;7.842;2023-08-06T16:48:23;98394.75;;;17.71;79.88
929;BME280;451;47.988;7.842;2023-08-06T16:57:28;98431.00;;;16.12;94.34
929;BME280;451;47.988;7.842;2023-08-06T17:06:33;98448.50;;;16.39;100.00
929;BME280;451;47.988;7.842;2023-08-06T17:15:37;98364.09;;;16.17;100.00
929;BME280;451;47.988;7.842;2023-08-06T17:24:41;98468.91;;;16.52;100.00
929;BME280;451;47.988;7.842;2023-08-06T17:33:45;98465.47;;;16.32;100.00
929;BME280;451;47.988;7.842;2023-08-06T17:42:49;98471.81;;;15.58;100.00
929;BME280;451;47.988;7.842;2023-08-06T17:51:53;98475.69;;;16.22;97.80
929;BME280;451;47.988;7.842;2023-08-06T18:00:57;98466.06;;;16.47;95.00
929;BME280;451;47.988;7.842;2023-08-06T18:10:01;98465.25;;;16.60;94.13
929;BME280;451;47.988;7.842;2023-08-06T18:19:05;98467.22;;;16.77;92.80
929;BME280;451;47.988;7.842;2023-08-06T18:28:08;98426.09;;;16.22;90.66
929;BME280;451;47.988;7.842;2023-08-06T18:37:13;98481.56;;;16.63;86.02
929;BME280;451;47.988;7.842;2023-08-06T18:46:16;98490.16;;;16.45;89.60
929;BME280;451;47.988;7.842;2023-08-06T18:55:21;98493.81;;;16.51;92.40
929;BME280;451;47.988;7.842;2023-08-06T19:04:24;98500.78;;;16.32;93.63
929;BME280;451;47.988;7.842;2023-08-06T19:13:29;98501.19;;;16.29;87.81
929;BME280;451;47.988;7.842;2023-08-06T19:22:32;98504.88;;;16.28;88.21
929;BME280;451;47.988;7.842;2023-08-06T19:31:37;98502.63;;;16.19;86.22
929;BME280;451;47.988;7.842;2023-08-06T19:40:40;98495.91;;;16.03;87.10
929;BME280;451;47.988;7.842;2023-08-06T19:49:44;98451.38;;;15.46;86.22
929;BME280;451;47.988;7.842;2023-08-06T19:58:48;98478.25;;;15.49;80.92
929;BME280;451;47.988;7.842;2023-08-06T20:07:53;98536.28;;;16.38;79.81
929;BME280;451;47.988;7.842;2023-08-06T20:16:56;98545.47;;;16.48;79.76
929;BME280;451;47.988;7.842;2023-08-06T20:26:01;98543.66;;;16.42;81.50
929;BME280;451;47.988;7.842;2023-08-06T20:35:05;98543.44;;;15.98;86.44
929;BME280;451;47.988;7.842;2023-08-06T20:44:10;98530.16;;;15.85;84.32
929;BME280;451;47.988;7.842;2023-08-06T20:53:13;98553.84;;;15.93;83.86
929;BME280;451;47.988;7.842;2023-08-06T21:02:21;98558.50;;;15.78;82.60
929;BME280;451;47.988;7.842;2023-08-06T21:11:24;98558.72;;;15.96;82.39
929;BME280;451;47.988;7.842;2023-08-06T21:20:29;98577.66;;;15.80;85.93
929;BME280;451;47.988;7.842;2023-08-06T21:29:32;98592.16;;;15.84;86.67
929;BME280;451;47.988;7.842;2023-08-06T21:38:38;98453.75;;;14.60;85.47
929;BME280;451;47.988;7.842;2023-08-06T21:47:45;98616.13;;;15.62;84.93
929;BME280;451;47.988;7.842;2023-08-06T21:56:49;98621.13;;;15.92;81.09
929;BME280;451;47.988;7.842;2023-08-06T22:05:53;98629.34;;;16.10;76.99
929;BME280;451;47.988;7.842;2023-08-06T22:14:58;98626.03;;;15.95;75.48
929;BME280;451;47.988;7.842;2023-08-06T22:24:02;98637.53;;;16.41;74.39
929;BME280;451;47.988;7.842;2023-08-06T22:33:07;98635.50;;;16.57;73.80
929;BME280;451;47.988;7.842;2023-08-06T22:42:10;98573.78;;;15.82;75.51
929;BME280;451;47.988;7.842;2023-08-06T22:51:15;98634.88;;;16.41;75.56
929;BME280;451;47.988;7.842;2023-08-06T23:00:18;98622.41;;;16.09;78.46
929;BME280;451;47.988;7.842;2023-08-06T23:09:23;98600.31;;;15.89;82.53
929;BME280;451;47.988;7.842;2023-08-06T23:18:26;98624.03;;;16.10;82.19
929;BME280;451;47.988;7.842;2023-08-06T23:27:31;98628.44;;;15.83;82.89
929;BME280;451;47.988;7.842;2023-08-06T23:36:34;98610.91;;;15.34;86.08
929;BME280;451;47.988;7.842;2023-08-06T23:45:39;98633.53;;;15.37;85.43
929;BME280;451;47.988;7.842;2023-08-06T23:54:42;98637.53;;;15.54;82.41
